Aérodrome :
LOGIN :

S'inscrire | Disclaimer

   EN    FR    IT 

 










Légende :    VFR   VFR Marginal   IFR   IFR Intensif   IFR Très Intensif
Visi : 
Plafond : 
>= 8 km
>= 3000ft
5 à 8 km
1000 à 3000 ft
1500m à 5 km
500 à 1000 ft
800 à 1500m
200 à 500 ft
< 800m
< 200 ft
Symboles :   Orages  Brouillard  Fortes neiges  Fortes précipitations  Vent > 20 kt
SIGMETs :   Divers  Orages  Givrage  Turbulence  Onde Orograph.  Cendres Volcan.






- Altitude de l'aérodrome : 249 ft


EGOS - RAF Shawbury

DERNIER METAR :
  • 182250Z 23002KT CAVOK 18/15 Q1018 NOSIG RMK BLU BLU

METARs EXPIRÉS :
  • 182220Z 25004KT CAVOK 17/15 Q1018 NOSIG RMK BLU BLU
  • 182150Z 25003KT CAVOK 18/14 Q1018 NOSIG RMK BLU BLU
  • 182120Z 29001KT CAVOK 20/14 Q1018 NOSIG RMK BLU BLU
  • 182050Z 29003KT CAVOK 20/15 Q1018 NOSIG RMK BLU BLU
  • 181950Z 30005KT CAVOK 21/15 Q1018 RMK BLU
  • 181850Z 17005KT CAVOK 23/15 Q1018 RMK BLU

TAF TAF EGOS
Valide du 18 à 21h jusqu'au 19 à 02h UTC


181951Z 1821/1902 18005KT CAVOK



MET'MAP, la Météo Aéronautique d'un coup d'oeil ! - Copyright ORBIFLY Décembre 2007 - Disclaimer

ORBIFLY MET'MAP TEAM :

Programmation & Développement : Alexandra Zaïnal
Sur une idée originale de : Baudouin d'Aumeries
Soutien technique & logistique : Manuel Goepfert
Assistance : Marc-Olivier Méhu




SOURCES & CREDITS :

   NOAA